CCGS Samuel Risley — CG2960 — position and weather

sailwx.info

Track history (hours):
 
Tides and Currents Weather Stations Pressure Air Temp Water Temp Dewpoint Dewpoint Depression Visibility Wind Speed Wind Dir Waves Ship Positions

CCGS Samuel Risley (Canada)

Medium Navaids Tender - Light Icebreaker

Last reported at 2015-Jul-31 20:11 UTC. Time now 2015-Aug-04 17:52 UTC.
Position N 44°25' W 063°30'.

Length 69.73 m; beam 13.7 m; draft 5.2 m.

Type: SAR. MMSI: 316001890.

Date/timePositionNaut miles runAvg speedWind from/ knotsBaromVisibWave heightAir tempDewpointWater temp
2015-Jul-31 20:11N 44°25' W 063°30'711.6
2015-Jul-31 19:33N 44°32' W 063°31'9 8.8
2015-Jul-31 18:33N 44°40' W 063°36'1 0.5
2015-Jul-31 16:30N 44°41' W 063°37'0 0.0
2015-Jul-31 15:30N 44°41' W 063°37'0 0.0
2015-Jul-31 14:30N 44°41' W 063°37'0 0.0
2015-Jul-31 13:33N 44°41' W 063°37'0 0.0
2015-Jul-31 12:33N 44°41' W 063°37'0 0.1
2015-Jul-31 11:23N 44°41' W 063°37'3 3.3
2015-Jul-31 10:33N 44°39' W 063°34'10 9.9
2015-Jul-31 09:33N 44°30' W 063°29'8 0.2
2015-Jul-29 18:07N 44°22' W 063°27'712.4
2015-Jul-29 17:33N 44°28' W 063°30'1010.3
2015-Jul-29 16:33N 44°38' W 063°33'4 3.6
2015-Jul-29 15:33N 44°41' W 063°37'0 0.0
2015-Jul-29 14:33N 44°41' W 063°37'0 0.0
2015-Jul-29 13:33N 44°41' W 063°37'0 0.0
2015-Jul-29 12:33N 44°41' W 063°37'0 0.0
2015-Jul-29 11:33N 44°41' W 063°37'0 0.0
2015-Jul-29 10:34N 44°41' W 063°37'0 0.0
2015-Jul-29 09:33N 44°41' W 063°37'0 0.0
2015-Jul-29 08:34N 44°41' W 063°37'0 0.0
2015-Jul-29 07:33N 44°41' W 063°37'0 0.0
2015-Jul-29 06:33N 44°41' W 063°37'0 0.0
2015-Jul-29 05:33N 44°41' W 063°37'0 0.0
2015-Jul-29 04:33N 44°41' W 063°37'0 0.0
2015-Jul-29 03:33N 44°41' W 063°37'0 0.0
2015-Jul-29 02:33N 44°41' W 063°37'0 0.0
2015-Jul-29 01:33N 44°41' W 063°37'0 0.0
2015-Jul-29 00:33N 44°41' W 063°37'0 0.0
2015-Jul-28 23:33N 44°41' W 063°37'0 0.0
2015-Jul-28 22:33N 44°41' W 063°37'0 0.0
2015-Jul-28 21:34N 44°41' W 063°37'0 0.0
2015-Jul-28 20:33N 44°41' W 063°37'0 0.0
2015-Jul-28 19:33N 44°41' W 063°37'0 0.0
2015-Jul-28 18:33N 44°41' W 063°37'0 0.0
2015-Jul-28 17:33N 44°41' W 063°37'0 0.0
2015-Jul-28 16:34N 44°41' W 063°37'0 0.0
2015-Jul-28 15:33N 44°41' W 063°37'0 0.0
2015-Jul-28 14:33N 44°41' W 063°37'0 0.0
2015-Jul-28 13:33N 44°41' W 063°37'0 0.0
2015-Jul-28 12:33N 44°41' W 063°37'0 0.0
2015-Jul-28 11:33N 44°41' W 063°37'0 0.0
2015-Jul-28 10:33N 44°41' W 063°37'0 0.0
2015-Jul-28 09:33N 44°41' W 063°37'0 0.0
2015-Jul-28 08:32N 44°41' W 063°37'0 0.0
2015-Jul-28 07:34N 44°41' W 063°37'0 0.0
2015-Jul-28 06:34N 44°41' W 063°37'0 0.0
2015-Jul-28 05:34N 44°41' W 063°37'0 0.0
2015-Jul-28 04:33N 44°41' W 063°37'0 0.0
2015-Jul-28 03:33N 44°41' W 063°37'0 0.0
2015-Jul-28 02:33N 44°41' W 063°37'0 0.0
2015-Jul-28 01:34N 44°41' W 063°37'0 0.0
2015-Jul-28 00:33N 44°41' W 063°37'0 0.0
2015-Jul-27 23:33N 44°41' W 063°37'3 3.3
2015-Jul-27 22:33N 44°39' W 063°33'5 5.4
2015-Jul-27 21:33N 44°34' W 063°30'0 0.0
2015-Jul-27 20:33N 44°34' W 063°30'2 2.3
2015-Jul-27 19:33N 44°36' W 063°32'6 6.1
2015-Jul-27 18:33N 44°41' W 063°37'0 0.0
2015-Jul-27 17:27N 44°41' W 063°37'0 0.0
2015-Jul-27 16:30N 44°41' W 063°37'0 0.0
2015-Jul-27 15:30N 44°41' W 063°37'0 0.0
2015-Jul-27 14:33N 44°41' W 063°37'0 0.0
2015-Jul-27 13:33N 44°41' W 063°37'0 0.0
2015-Jul-27 12:33N 44°41' W 063°37'0 0.0
2015-Jul-27 11:21N 44°41' W 063°37'  
2015-Jul-24 08:26N 44°41' W 063°37'0 0.0
2015-Jul-24 07:32N 44°41' W 063°37'0 0.0
2015-Jul-24 06:29N 44°41' W 063°37'0 0.0
2015-Jul-24 05:32N 44°41' W 063°37'0 0.0
2015-Jul-24 04:32N 44°41' W 063°37'0 0.0
2015-Jul-24 03:32N 44°41' W 063°37'0 0.0
2015-Jul-24 02:32N 44°41' W 063°37'0 0.0
2015-Jul-24 01:32N 44°41' W 063°37'0 0.0
2015-Jul-24 00:32N 44°41' W 063°37'0 0.0
2015-Jul-23 23:26N 44°41' W 063°37'0 0.0
2015-Jul-23 22:26N 44°41' W 063°37'0 0.0
2015-Jul-23 21:26N 44°41' W 063°37'1 0.8
2015-Jul-23 20:33N 44°40' W 063°36'7 7.0
2015-Jul-23 19:33N 44°34' W 063°32'8 7.6
2015-Jul-23 18:33N 44°27' W 063°31'3 1.1
2015-Jul-23 15:20N 44°23' W 063°32'3 1.6
2015-Jul-23 13:33N 44°23' W 063°28'1212.1
2015-Jul-23 12:33N 44°35' W 063°32'7 6.9
2015-Jul-23 11:33N 44°41' W 063°37'0 0.0
2015-Jul-23 10:21N 44°41' W 063°37'0 0.0
2015-Jul-23 09:21N 44°41' W 063°37'0 0.0
2015-Jul-23 08:27N 44°41' W 063°37'0 0.0
2015-Jul-23 07:27N 44°41' W 063°37'0 0.0
2015-Jul-23 06:30N 44°41' W 063°37'0 0.0
2015-Jul-23 05:30N 44°41' W 063°37'0 0.0
2015-Jul-23 04:30N 44°41' W 063°37'0 0.0
2015-Jul-23 03:18N 44°41' W 063°37'0 0.0
2015-Jul-23 02:30N 44°41' W 063°37'0 0.0
2015-Jul-23 01:33N 44°41' W 063°37'0 0.0
2015-Jul-23 00:33N 44°41' W 063°37'0 0.0
2015-Jul-22 23:33N 44°41' W 063°37'0 0.0
2015-Jul-22 22:33N 44°41' W 063°37'0 0.0
2015-Jul-22 21:33N 44°41' W 063°37'0 0.0
2015-Jul-22 20:24N 44°41' W 063°37'0 0.0
2015-Jul-22 19:27N 44°41' W 063°37'0 0.0
2015-Jul-22 18:27N 44°41' W 063°37'0 0.0
2015-Jul-22 17:24N 44°41' W 063°37'0 0.0
2015-Jul-22 16:30N 44°41' W 063°37'0 0.0
2015-Jul-22 15:30N 44°41' W 063°37'0 0.0
2015-Jul-22 14:30N 44°41' W 063°37'0 0.0
2015-Jul-22 13:33N 44°41' W 063°37'0 0.0
2015-Jul-22 12:33N 44°41' W 063°37'0 0.0
2015-Jul-22 11:33N 44°41' W 063°37'0 0.0
2015-Jul-22 10:28N 44°41' W 063°37'0 0.0
2015-Jul-22 09:33N 44°41' W 063°37'0 0.0
2015-Jul-22 08:33N 44°41' W 063°37'0 0.0
2015-Jul-22 07:28N 44°41' W 063°37'0 0.0
2015-Jul-22 06:31N 44°41' W 063°37'0 0.0
2015-Jul-22 05:31N 44°41' W 063°37'0 0.0
2015-Jul-22 04:28N 44°41' W 063°37'0 0.0
2015-Jul-22 03:31N 44°41' W 063°37'0 0.0
2015-Jul-22 02:25N 44°41' W 063°37'0 0.0
2015-Jul-22 01:31N 44°41' W 063°37'0 0.0
2015-Jul-22 00:28N 44°41' W 063°37'0 0.0
2015-Jul-21 23:31N 44°41' W 063°37'0 0.0
2015-Jul-21 22:31N 44°41' W 063°37'0 0.0
2015-Jul-21 21:31N 44°41' W 063°37'0 0.1
2015-Jul-21 20:33N 44°41' W 063°37'  
Track history (hours):
 
Tides and Currents Weather Stations Pressure Air Temp Water Temp Dewpoint Dewpoint Depression Visibility Wind Speed Wind Dir Waves Ship Positions

CCGS Samuel Risley (Canada)

Medium Navaids Tender - Light Icebreaker

Last reported at 2015-Jul-31 20:11 UTC. Time now 2015-Aug-04 17:52 UTC.
Position N 44°25' W 063°30'.

Length 69.73 m; beam 13.7 m; draft 5.2 m.

Type: SAR. MMSI: 316001890.

Date/timePositionNaut miles runAvg speedWind from/ knotsBaromVisibWave heightAir tempDewpointWater temp
2015-Jul-31 20:11N 44°25' W 063°30'711.6
2015-Jul-31 19:33N 44°32' W 063°31'9 8.8
2015-Jul-31 18:33N 44°40' W 063°36'1 0.5
2015-Jul-31 16:30N 44°41' W 063°37'0 0.0
2015-Jul-31 15:30N 44°41' W 063°37'0 0.0
2015-Jul-31 14:30N 44°41' W 063°37'0 0.0
2015-Jul-31 13:33N 44°41' W 063°37'0 0.0
2015-Jul-31 12:33N 44°41' W 063°37'0 0.1
2015-Jul-31 11:23N 44°41' W 063°37'3 3.3
2015-Jul-31 10:33N 44°39' W 063°34'10 9.9
2015-Jul-31 09:33N 44°30' W 063°29'8 0.2
2015-Jul-29 18:07N 44°22' W 063°27'712.4
2015-Jul-29 17:33N 44°28' W 063°30'1010.3
2015-Jul-29 16:33N 44°38' W 063°33'4 3.6
2015-Jul-29 15:33N 44°41' W 063°37'0 0.0
2015-Jul-29 14:33N 44°41' W 063°37'0 0.0
2015-Jul-29 13:33N 44°41' W 063°37'0 0.0
2015-Jul-29 12:33N 44°41' W 063°37'0 0.0
2015-Jul-29 11:33N 44°41' W 063°37'0 0.0
2015-Jul-29 10:34N 44°41' W 063°37'0 0.0
2015-Jul-29 09:33N 44°41' W 063°37'0 0.0
2015-Jul-29 08:34N 44°41' W 063°37'0 0.0
2015-Jul-29 07:33N 44°41' W 063°37'0 0.0
2015-Jul-29 06:33N 44°41' W 063°37'0 0.0
2015-Jul-29 05:33N 44°41' W 063°37'0 0.0
2015-Jul-29 04:33N 44°41' W 063°37'0 0.0
2015-Jul-29 03:33N 44°41' W 063°37'0 0.0
2015-Jul-29 02:33N 44°41' W 063°37'0 0.0
2015-Jul-29 01:33N 44°41' W 063°37'0 0.0
2015-Jul-29 00:33N 44°41' W 063°37'0 0.0
2015-Jul-28 23:33N 44°41' W 063°37'0 0.0
2015-Jul-28 22:33N 44°41' W 063°37'0 0.0
2015-Jul-28 21:34N 44°41' W 063°37'0 0.0
2015-Jul-28 20:33N 44°41' W 063°37'0 0.0
2015-Jul-28 19:33N 44°41' W 063°37'0 0.0
2015-Jul-28 18:33N 44°41' W 063°37'0 0.0
2015-Jul-28 17:33N 44°41' W 063°37'0 0.0
2015-Jul-28 16:34N 44°41' W 063°37'0 0.0
2015-Jul-28 15:33N 44°41' W 063°37'0 0.0
2015-Jul-28 14:33N 44°41' W 063°37'0 0.0
2015-Jul-28 13:33N 44°41' W 063°37'0 0.0
2015-Jul-28 12:33N 44°41' W 063°37'0 0.0
2015-Jul-28 11:33N 44°41' W 063°37'0 0.0
2015-Jul-28 10:33N 44°41' W 063°37'0 0.0
2015-Jul-28 09:33N 44°41' W 063°37'0 0.0
2015-Jul-28 08:32N 44°41' W 063°37'0 0.0
2015-Jul-28 07:34N 44°41' W 063°37'0 0.0
2015-Jul-28 06:34N 44°41' W 063°37'0 0.0
2015-Jul-28 05:34N 44°41' W 063°37'0 0.0
2015-Jul-28 04:33N 44°41' W 063°37'0 0.0
2015-Jul-28 03:33N 44°41' W 063°37'0 0.0
2015-Jul-28 02:33N 44°41' W 063°37'0 0.0
2015-Jul-28 01:34N 44°41' W 063°37'0 0.0
2015-Jul-28 00:33N 44°41' W 063°37'0 0.0
2015-Jul-27 23:33N 44°41' W 063°37'3 3.3
2015-Jul-27 22:33N 44°39' W 063°33'5 5.4
2015-Jul-27 21:33N 44°34' W 063°30'0 0.0
2015-Jul-27 20:33N 44°34' W 063°30'2 2.3
2015-Jul-27 19:33N 44°36' W 063°32'6 6.1
2015-Jul-27 18:33N 44°41' W 063°37'0 0.0
2015-Jul-27 17:27N 44°41' W 063°37'0 0.0
2015-Jul-27 16:30N 44°41' W 063°37'0 0.0
2015-Jul-27 15:30N 44°41' W 063°37'0 0.0
2015-Jul-27 14:33N 44°41' W 063°37'0 0.0
2015-Jul-27 13:33N 44°41' W 063°37'0 0.0
2015-Jul-27 12:33N 44°41' W 063°37'0 0.0
2015-Jul-27 11:21N 44°41' W 063°37'  
2015-Jul-24 08:26N 44°41' W 063°37'0 0.0
2015-Jul-24 07:32N 44°41' W 063°37'0 0.0
2015-Jul-24 06:29N 44°41' W 063°37'0 0.0
2015-Jul-24 05:32N 44°41' W 063°37'0 0.0
2015-Jul-24 04:32N 44°41' W 063°37'0 0.0
2015-Jul-24 03:32N 44°41' W 063°37'0 0.0
2015-Jul-24 02:32N 44°41' W 063°37'0 0.0
2015-Jul-24 01:32N 44°41' W 063°37'0 0.0
2015-Jul-24 00:32N 44°41' W 063°37'0 0.0
2015-Jul-23 23:26N 44°41' W 063°37'0 0.0
2015-Jul-23 22:26N 44°41' W 063°37'0 0.0
2015-Jul-23 21:26N 44°41' W 063°37'1 0.8
2015-Jul-23 20:33N 44°40' W 063°36'7 7.0
2015-Jul-23 19:33N 44°34' W 063°32'8 7.6
2015-Jul-23 18:33N 44°27' W 063°31'3 1.1
2015-Jul-23 15:20N 44°23' W 063°32'3 1.6
2015-Jul-23 13:33N 44°23' W 063°28'1212.1
2015-Jul-23 12:33N 44°35' W 063°32'7 6.9
2015-Jul-23 11:33N 44°41' W 063°37'0 0.0
2015-Jul-23 10:21N 44°41' W 063°37'0 0.0
2015-Jul-23 09:21N 44°41' W 063°37'0 0.0
2015-Jul-23 08:27N 44°41' W 063°37'0 0.0
2015-Jul-23 07:27N 44°41' W 063°37'0 0.0
2015-Jul-23 06:30N 44°41' W 063°37'0 0.0
2015-Jul-23 05:30N 44°41' W 063°37'0 0.0
2015-Jul-23 04:30N 44°41' W 063°37'0 0.0
2015-Jul-23 03:18N 44°41' W 063°37'0 0.0
2015-Jul-23 02:30N 44°41' W 063°37'0 0.0
2015-Jul-23 01:33N 44°41' W 063°37'0 0.0
2015-Jul-23 00:33N 44°41' W 063°37'0 0.0
2015-Jul-22 23:33N 44°41' W 063°37'0 0.0
2015-Jul-22 22:33N 44°41' W 063°37'0 0.0
2015-Jul-22 21:33N 44°41' W 063°37'0 0.0
2015-Jul-22 20:24N 44°41' W 063°37'0 0.0
2015-Jul-22 19:27N 44°41' W 063°37'0 0.0
2015-Jul-22 18:27N 44°41' W 063°37'0 0.0
2015-Jul-22 17:24N 44°41' W 063°37'0 0.0
2015-Jul-22 16:30N 44°41' W 063°37'0 0.0
2015-Jul-22 15:30N 44°41' W 063°37'0 0.0
2015-Jul-22 14:30N 44°41' W 063°37'0 0.0
2015-Jul-22 13:33N 44°41' W 063°37'0 0.0
2015-Jul-22 12:33N 44°41' W 063°37'0 0.0
2015-Jul-22 11:33N 44°41' W 063°37'0 0.0
2015-Jul-22 10:28N 44°41' W 063°37'0 0.0
2015-Jul-22 09:33N 44°41' W 063°37'0 0.0
2015-Jul-22 08:33N 44°41' W 063°37'0 0.0
2015-Jul-22 07:28N 44°41' W 063°37'0 0.0
2015-Jul-22 06:31N 44°41' W 063°37'0 0.0
2015-Jul-22 05:31N 44°41' W 063°37'0 0.0
2015-Jul-22 04:28N 44°41' W 063°37'0 0.0
2015-Jul-22 03:31N 44°41' W 063°37'0 0.0
2015-Jul-22 02:25N 44°41' W 063°37'0 0.0
2015-Jul-22 01:31N 44°41' W 063°37'0 0.0
2015-Jul-22 00:28N 44°41' W 063°37'0 0.0
2015-Jul-21 23:31N 44°41' W 063°37'0 0.0
2015-Jul-21 22:31N 44°41' W 063°37'0 0.0
2015-Jul-21 21:31N 44°41' W 063°37'0 0.1
2015-Jul-21 20:33N 44°41' W 063°37'  

Dump ship's entire track history